Aviation Digital Data Service (ADDS)

Output produced by METARs form (1621 UTC 26 September 2017)
found at http://bcaws.aviationweather.gov/adds/metars/
 
METAR text: KPAO 261447Z 00000KT 10SM FEW180 15/11 A2986 RMK P&E WORKING DEPARTURE END OF RWY31.
Conditions at: KPAO (PALO ALTO , CA, US) observed 1447 UTC 26 September 2017
Temperature: 15.0°C (59°F)
Dewpoint: 11.0°C (52°F) [RH = 77%]
Pressure (altimeter): 29.86 inches Hg (1011.3 mb)
Winds: calm
Visibility: 10 or more miles (16+ km)
Ceiling: at least 12,000 feet AGL
Clouds: few clouds at 18000 feet AGL
Weather: no significant weather observed at this time